sensor_id;sensor_type;location;lat;lon;timestamp;P1;durP1;ratioP1;P2;durP2;ratioP2
14048;SDS011;7099;53.922;10.728;2023-12-28T00:02:55;7.83;;;3.17;;
14048;SDS011;7099;53.922;10.728;2023-12-28T00:07:02;5.83;;;3.07;;
14048;SDS011;7099;53.922;10.728;2023-12-28T00:11:08;4.07;;;3.17;;
14048;SDS011;7099;53.922;10.728;2023-12-28T00:15:14;5.37;;;3.23;;
14048;SDS011;7099;53.922;10.728;2023-12-28T00:19:20;4.37;;;3.33;;
14048;SDS011;7099;53.922;10.728;2023-12-28T00:23:26;7.23;;;3.20;;
14048;SDS011;7099;53.922;10.728;2023-12-28T00:27:32;4.57;;;2.83;;
14048;SDS011;7099;53.922;10.728;2023-12-28T00:31:42;7.90;;;3.60;;
14048;SDS011;7099;53.922;10.728;2023-12-28T00:35:48;5.67;;;3.20;;
14048;SDS011;7099;53.922;10.728;2023-12-28T00:39:54;4.80;;;3.17;;
14048;SDS011;7099;53.922;10.728;2023-12-28T00:44:00;7.63;;;3.07;;
14048;SDS011;7099;53.922;10.728;2023-12-28T00:48:07;2.93;;;2.63;;
14048;SDS011;7099;53.922;10.728;2023-12-28T00:52:13;7.03;;;3.17;;
14048;SDS011;7099;53.922;10.728;2023-12-28T00:56:18;4.73;;;2.67;;
14048;SDS011;7099;53.922;10.728;2023-12-28T01:00:26;5.47;;;3.30;;
14048;SDS011;7099;53.922;10.728;2023-12-28T01:04:31;10.47;;;3.10;;
14048;SDS011;7099;53.922;10.728;2023-12-28T01:08:37;3.17;;;2.37;;
14048;SDS011;7099;53.922;10.728;2023-12-28T01:12:43;5.37;;;2.90;;
14048;SDS011;7099;53.922;10.728;2023-12-28T01:16:48;3.90;;;2.80;;
14048;SDS011;7099;53.922;10.728;2023-12-28T01:20:54;3.03;;;2.20;;
14048;SDS011;7099;53.922;10.728;2023-12-28T01:25:00;3.23;;;2.70;;
14048;SDS011;7099;53.922;10.728;2023-12-28T01:29:05;5.67;;;2.60;;
14048;SDS011;7099;53.922;10.728;2023-12-28T01:33:11;2.90;;;2.33;;
14048;SDS011;7099;53.922;10.728;2023-12-28T01:37:17;6.03;;;2.20;;
14048;SDS011;7099;53.922;10.728;2023-12-28T01:41:22;2.70;;;2.23;;
14048;SDS011;7099;53.922;10.728;2023-12-28T01:45:28;3.90;;;2.27;;
14048;SDS011;7099;53.922;10.728;2023-12-28T01:49:34;4.07;;;2.20;;
14048;SDS011;7099;53.922;10.728;2023-12-28T01:53:42;8.13;;;2.30;;
14048;SDS011;7099;53.922;10.728;2023-12-28T01:57:49;8.63;;;2.17;;
14048;SDS011;7099;53.922;10.728;2023-12-28T02:01:55;2.60;;;1.90;;
14048;SDS011;7099;53.922;10.728;2023-12-28T02:06:01;3.13;;;2.40;;
14048;SDS011;7099;53.922;10.728;2023-12-28T02:10:08;2.70;;;2.30;;
14048;SDS011;7099;53.922;10.728;2023-12-28T02:14:14;2.80;;;2.30;;
14048;SDS011;7099;53.922;10.728;2023-12-28T02:18:21;4.33;;;2.47;;
14048;SDS011;7099;53.922;10.728;2023-12-28T02:22:32;2.53;;;2.03;;
14048;SDS011;7099;53.922;10.728;2023-12-28T02:26:39;5.50;;;2.40;;
14048;SDS011;7099;53.922;10.728;2023-12-28T02:30:44;3.20;;;2.27;;
14048;SDS011;7099;53.922;10.728;2023-12-28T02:34:51;6.17;;;2.10;;
14048;SDS011;7099;53.922;10.728;2023-12-28T02:43:10;1.93;;;1.83;;
14048;SDS011;7099;53.922;10.728;2023-12-28T02:47:16;3.57;;;2.37;;
14048;SDS011;7099;53.922;10.728;2023-12-28T02:51:22;6.60;;;2.40;;
14048;SDS011;7099;53.922;10.728;2023-12-28T02:55:27;2.50;;;2.20;;
14048;SDS011;7099;53.922;10.728;2023-12-28T02:59:33;3.10;;;2.33;;
14048;SDS011;7099;53.922;10.728;2023-12-28T03:03:39;5.20;;;2.40;;
14048;SDS011;7099;53.922;10.728;2023-12-28T03:07:44;4.30;;;2.53;;
14048;SDS011;7099;53.922;10.728;2023-12-28T03:11:50;3.40;;;2.20;;
14048;SDS011;7099;53.922;10.728;2023-12-28T03:15:56;4.10;;;2.20;;
14048;SDS011;7099;53.922;10.728;2023-12-28T03:20:02;3.67;;;2.50;;
14048;SDS011;7099;53.922;10.728;2023-12-28T03:24:08;3.90;;;2.57;;
14048;SDS011;7099;53.922;10.728;2023-12-28T03:28:14;4.50;;;2.60;;
14048;SDS011;7099;53.922;10.728;2023-12-28T03:32:20;3.50;;;2.50;;
14048;SDS011;7099;53.922;10.728;2023-12-28T03:36:25;8.70;;;2.40;;
14048;SDS011;7099;53.922;10.728;2023-12-28T03:40:31;3.63;;;2.40;;
14048;SDS011;7099;53.922;10.728;2023-12-28T03:44:36;3.40;;;2.40;;
14048;SDS011;7099;53.922;10.728;2023-12-28T03:48:42;2.97;;;2.10;;
14048;SDS011;7099;53.922;10.728;2023-12-28T03:52:48;9.37;;;2.53;;
14048;SDS011;7099;53.922;10.728;2023-12-28T03:56:54;4.40;;;2.43;;
14048;SDS011;7099;53.922;10.728;2023-12-28T04:00:59;3.50;;;2.57;;
14048;SDS011;7099;53.922;10.728;2023-12-28T04:05:05;4.70;;;2.30;;
14048;SDS011;7099;53.922;10.728;2023-12-28T04:09:12;8.80;;;2.80;;
14048;SDS011;7099;53.922;10.728;2023-12-28T04:13:18;3.80;;;2.70;;
14048;SDS011;7099;53.922;10.728;2023-12-28T04:17:23;3.93;;;2.50;;
14048;SDS011;7099;53.922;10.728;2023-12-28T04:21:29;4.00;;;2.70;;
14048;SDS011;7099;53.922;10.728;2023-12-28T04:25:34;4.10;;;2.50;;
14048;SDS011;7099;53.922;10.728;2023-12-28T04:29:40;4.27;;;2.50;;
14048;SDS011;7099;53.922;10.728;2023-12-28T04:33:45;4.37;;;2.67;;
14048;SDS011;7099;53.922;10.728;2023-12-28T04:37:51;5.57;;;2.50;;
14048;SDS011;7099;53.922;10.728;2023-12-28T04:41:57;4.33;;;2.50;;
14048;SDS011;7099;53.922;10.728;2023-12-28T04:46:03;9.20;;;2.60;;
14048;SDS011;7099;53.922;10.728;2023-12-28T04:50:09;7.47;;;3.03;;
14048;SDS011;7099;53.922;10.728;2023-12-28T04:54:15;4.53;;;2.47;;
14048;SDS011;7099;53.922;10.728;2023-12-28T04:58:20;3.63;;;2.50;;
14048;SDS011;7099;53.922;10.728;2023-12-28T05:02:26;5.63;;;2.87;;
14048;SDS011;7099;53.922;10.728;2023-12-28T05:06:31;3.43;;;2.60;;
14048;SDS011;7099;53.922;10.728;2023-12-28T05:10:37;12.80;;;3.03;;
14048;SDS011;7099;53.922;10.728;2023-12-28T05:14:43;4.57;;;2.33;;
14048;SDS011;7099;53.922;10.728;2023-12-28T05:18:48;3.70;;;2.53;;
14048;SDS011;7099;53.922;10.728;2023-12-28T05:22:54;2.60;;;2.07;;
14048;SDS011;7099;53.922;10.728;2023-12-28T05:26:59;2.63;;;2.20;;
14048;SDS011;7099;53.922;10.728;2023-12-28T05:31:05;9.83;;;3.40;;
14048;SDS011;7099;53.922;10.728;2023-12-28T05:35:11;7.50;;;2.50;;
14048;SDS011;7099;53.922;10.728;2023-12-28T05:39:16;2.90;;;2.50;;
14048;SDS011;7099;53.922;10.728;2023-12-28T05:43:22;4.13;;;2.33;;
14048;SDS011;7099;53.922;10.728;2023-12-28T05:47:28;6.40;;;3.00;;
14048;SDS011;7099;53.922;10.728;2023-12-28T05:51:39;6.20;;;2.87;;
14048;SDS011;7099;53.922;10.728;2023-12-28T05:55:46;10.83;;;2.70;;
14048;SDS011;7099;53.922;10.728;2023-12-28T05:59:51;6.13;;;2.60;;
14048;SDS011;7099;53.922;10.728;2023-12-28T06:03:57;6.30;;;2.70;;
14048;SDS011;7099;53.922;10.728;2023-12-28T06:08:02;3.13;;;2.30;;
14048;SDS011;7099;53.922;10.728;2023-12-28T06:12:09;5.90;;;2.87;;
14048;SDS011;7099;53.922;10.728;2023-12-28T06:16:15;4.73;;;2.63;;
14048;SDS011;7099;53.922;10.728;2023-12-28T06:20:20;3.83;;;2.67;;
14048;SDS011;7099;53.922;10.728;2023-12-28T06:24:26;4.83;;;1.93;;
14048;SDS011;7099;53.922;10.728;2023-12-28T06:28:31;5.40;;;2.70;;
14048;SDS011;7099;53.922;10.728;2023-12-28T06:32:38;9.33;;;2.53;;
14048;SDS011;7099;53.922;10.728;2023-12-28T06:36:44;5.83;;;2.63;;
14048;SDS011;7099;53.922;10.728;2023-12-28T06:40:51;8.33;;;2.83;;
14048;SDS011;7099;53.922;10.728;2023-12-28T06:44:56;5.60;;;2.20;;
14048;SDS011;7099;53.922;10.728;2023-12-28T06:49:02;6.23;;;2.73;;
14048;SDS011;7099;53.922;10.728;2023-12-28T06:53:10;7.57;;;2.40;;
14048;SDS011;7099;53.922;10.728;2023-12-28T06:57:16;3.37;;;2.30;;
14048;SDS011;7099;53.922;10.728;2023-12-28T07:01:22;4.17;;;2.13;;
14048;SDS011;7099;53.922;10.728;2023-12-28T07:05:28;6.47;;;2.03;;
14048;SDS011;7099;53.922;10.728;2023-12-28T07:09:33;8.77;;;2.60;;
14048;SDS011;7099;53.922;10.728;2023-12-28T07:13:39;5.10;;;2.10;;
14048;SDS011;7099;53.922;10.728;2023-12-28T07:17:44;3.53;;;2.03;;
14048;SDS011;7099;53.922;10.728;2023-12-28T07:21:50;11.20;;;2.27;;
14048;SDS011;7099;53.922;10.728;2023-12-28T07:25:56;6.53;;;2.40;;
14048;SDS011;7099;53.922;10.728;2023-12-28T07:30:02;7.00;;;2.57;;
14048;SDS011;7099;53.922;10.728;2023-12-28T07:34:08;7.23;;;2.00;;
14048;SDS011;7099;53.922;10.728;2023-12-28T07:38:14;5.33;;;2.20;;
14048;SDS011;7099;53.922;10.728;2023-12-28T07:42:20;5.10;;;2.20;;
14048;SDS011;7099;53.922;10.728;2023-12-28T07:46:26;9.80;;;2.60;;
14048;SDS011;7099;53.922;10.728;2023-12-28T07:50:32;5.63;;;2.10;;
14048;SDS011;7099;53.922;10.728;2023-12-28T07:54:37;7.13;;;2.00;;
14048;SDS011;7099;53.922;10.728;2023-12-28T07:58:43;7.10;;;2.00;;
14048;SDS011;7099;53.922;10.728;2023-12-28T08:02:48;6.17;;;2.27;;
14048;SDS011;7099;53.922;10.728;2023-12-28T08:06:54;4.73;;;2.13;;
14048;SDS011;7099;53.922;10.728;2023-12-28T08:11:00;10.10;;;3.20;;
14048;SDS011;7099;53.922;10.728;2023-12-28T08:15:05;6.37;;;2.07;;
14048;SDS011;7099;53.922;10.728;2023-12-28T08:19:12;6.05;;;2.30;;
14048;SDS011;7099;53.922;10.728;2023-12-28T08:23:18;5.30;;;2.00;;
14048;SDS011;7099;53.922;10.728;2023-12-28T08:27:24;12.90;;;2.20;;
14048;SDS011;7099;53.922;10.728;2023-12-28T08:31:30;5.67;;;1.90;;
14048;SDS011;7099;53.922;10.728;2023-12-28T08:35:36;4.33;;;2.13;;
14048;SDS011;7099;53.922;10.728;2023-12-28T08:39:41;5.57;;;2.30;;
14048;SDS011;7099;53.922;10.728;2023-12-28T08:43:47;4.33;;;1.83;;
14048;SDS011;7099;53.922;10.728;2023-12-28T08:47:53;2.97;;;1.80;;
14048;SDS011;7099;53.922;10.728;2023-12-28T08:51:58;6.20;;;1.67;;
14048;SDS011;7099;53.922;10.728;2023-12-28T08:56:17;6.20;;;2.00;;
14048;SDS011;7099;53.922;10.728;2023-12-28T09:00:26;4.80;;;2.10;;
14048;SDS011;7099;53.922;10.728;2023-12-28T09:04:33;9.27;;;1.70;;
14048;SDS011;7099;53.922;10.728;2023-12-28T09:08:41;7.03;;;2.07;;
14048;SDS011;7099;53.922;10.728;2023-12-28T09:12:48;12.93;;;2.40;;
14048;SDS011;7099;53.922;10.728;2023-12-28T09:16:53;8.40;;;2.00;;
14048;SDS011;7099;53.922;10.728;2023-12-28T09:20:59;4.13;;;1.63;;
14048;SDS011;7099;53.922;10.728;2023-12-28T09:25:04;7.13;;;2.27;;
14048;SDS011;7099;53.922;10.728;2023-12-28T09:29:10;8.73;;;2.50;;
14048;SDS011;7099;53.922;10.728;2023-12-28T09:33:16;7.93;;;2.23;;
14048;SDS011;7099;53.922;10.728;2023-12-28T09:37:22;11.90;;;1.93;;
14048;SDS011;7099;53.922;10.728;2023-12-28T09:41:27;6.13;;;2.10;;
14048;SDS011;7099;53.922;10.728;2023-12-28T09:45:36;4.33;;;1.80;;
14048;SDS011;7099;53.922;10.728;2023-12-28T09:49:42;7.73;;;2.03;;
14048;SDS011;7099;53.922;10.728;2023-12-28T09:53:49;5.90;;;2.10;;
14048;SDS011;7099;53.922;10.728;2023-12-28T09:57:54;11.43;;;2.43;;
14048;SDS011;7099;53.922;10.728;2023-12-28T10:02:02;8.40;;;1.80;;
14048;SDS011;7099;53.922;10.728;2023-12-28T10:06:08;9.00;;;2.20;;
14048;SDS011;7099;53.922;10.728;2023-12-28T10:10:15;6.23;;;1.60;;
14048;SDS011;7099;53.922;10.728;2023-12-28T10:14:21;4.80;;;1.90;;
14048;SDS011;7099;53.922;10.728;2023-12-28T10:18:26;7.67;;;1.83;;
14048;SDS011;7099;53.922;10.728;2023-12-28T10:22:32;8.60;;;1.90;;
14048;SDS011;7099;53.922;10.728;2023-12-28T10:26:38;9.37;;;2.23;;
14048;SDS011;7099;53.922;10.728;2023-12-28T10:30:44;9.30;;;1.90;;
14048;SDS011;7099;53.922;10.728;2023-12-28T10:34:51;4.33;;;1.80;;
14048;SDS011;7099;53.922;10.728;2023-12-28T10:39:00;5.10;;;1.73;;
14048;SDS011;7099;53.922;10.728;2023-12-28T10:43:06;12.00;;;2.33;;
14048;SDS011;7099;53.922;10.728;2023-12-28T10:47:16;8.50;;;2.00;;
14048;SDS011;7099;53.922;10.728;2023-12-28T10:51:24;3.53;;;1.87;;
14048;SDS011;7099;53.922;10.728;2023-12-28T10:55:40;12.40;;;1.77;;
14048;SDS011;7099;53.922;10.728;2023-12-28T11:00:16;5.17;;;1.83;;
14048;SDS011;7099;53.922;10.728;2023-12-28T15:11:28;14.57;;;3.13;;
14048;SDS011;7099;53.922;10.728;2023-12-28T15:15:49;11.00;;;2.37;;
14048;SDS011;7099;53.922;10.728;2023-12-28T15:19:56;14.23;;;2.80;;
14048;SDS011;7099;53.922;10.728;2023-12-28T15:28:09;13.30;;;2.87;;
14048;SDS011;7099;53.922;10.728;2023-12-28T15:32:14;11.93;;;2.53;;
14048;SDS011;7099;53.922;10.728;2023-12-28T15:36:20;14.30;;;3.40;;
14048;SDS011;7099;53.922;10.728;2023-12-28T15:40:27;15.10;;;2.70;;
14048;SDS011;7099;53.922;10.728;2023-12-28T15:44:33;10.80;;;3.13;;
14048;SDS011;7099;53.922;10.728;2023-12-28T15:48:38;16.27;;;3.47;;
14048;SDS011;7099;53.922;10.728;2023-12-28T15:52:44;8.80;;;2.50;;
14048;SDS011;7099;53.922;10.728;2023-12-28T15:56:50;14.63;;;3.80;;
14048;SDS011;7099;53.922;10.728;2023-12-28T16:00:55;13.03;;;3.23;;
14048;SDS011;7099;53.922;10.728;2023-12-28T16:05:01;13.10;;;2.50;;
14048;SDS011;7099;53.922;10.728;2023-12-28T16:09:07;14.53;;;3.80;;
14048;SDS011;7099;53.922;10.728;2023-12-28T16:13:13;13.00;;;2.80;;
14048;SDS011;7099;53.922;10.728;2023-12-28T16:17:19;13.23;;;3.10;;
14048;SDS011;7099;53.922;10.728;2023-12-28T16:21:25;16.23;;;3.40;;
14048;SDS011;7099;53.922;10.728;2023-12-28T16:25:32;21.33;;;3.40;;
14048;SDS011;7099;53.922;10.728;2023-12-28T16:29:38;10.80;;;2.53;;
14048;SDS011;7099;53.922;10.728;2023-12-28T16:33:43;16.13;;;2.53;;
14048;SDS011;7099;53.922;10.728;2023-12-28T16:37:49;11.10;;;2.60;;
14048;SDS011;7099;53.922;10.728;2023-12-28T16:41:54;12.13;;;2.17;;
14048;SDS011;7099;53.922;10.728;2023-12-28T16:46:00;13.10;;;2.67;;
14048;SDS011;7099;53.922;10.728;2023-12-28T16:50:06;13.43;;;3.07;;
14048;SDS011;7099;53.922;10.728;2023-12-28T16:54:13;20.90;;;3.20;;
14048;SDS011;7099;53.922;10.728;2023-12-28T16:58:19;17.03;;;3.33;;
14048;SDS011;7099;53.922;10.728;2023-12-28T17:02:25;17.63;;;3.20;;
14048;SDS011;7099;53.922;10.728;2023-12-28T17:06:31;15.83;;;3.13;;
14048;SDS011;7099;53.922;10.728;2023-12-28T17:10:37;20.93;;;3.03;;
14048;SDS011;7099;53.922;10.728;2023-12-28T17:14:46;14.67;;;3.07;;
14048;SDS011;7099;53.922;10.728;2023-12-28T17:18:51;10.73;;;2.33;;
14048;SDS011;7099;53.922;10.728;2023-12-28T17:23:33;18.93;;;3.33;;
14048;SDS011;7099;53.922;10.728;2023-12-28T17:27:44;13.50;;;3.47;;
14048;SDS011;7099;53.922;10.728;2023-12-28T17:31:57;10.90;;;2.90;;
14048;SDS011;7099;53.922;10.728;2023-12-28T17:36:07;10.80;;;2.57;;
14048;SDS011;7099;53.922;10.728;2023-12-28T17:40:15;9.77;;;2.50;;
14048;SDS011;7099;53.922;10.728;2023-12-28T17:44:23;12.47;;;2.93;;
14048;SDS011;7099;53.922;10.728;2023-12-28T17:48:31;19.60;;;3.13;;
14048;SDS011;7099;53.922;10.728;2023-12-28T17:52:43;13.40;;;2.80;;
14048;SDS011;7099;53.922;10.728;2023-12-28T17:56:51;11.60;;;2.73;;
14048;SDS011;7099;53.922;10.728;2023-12-28T18:01:01;14.70;;;3.33;;
14048;SDS011;7099;53.922;10.728;2023-12-28T18:05:06;14.57;;;3.40;;
14048;SDS011;7099;53.922;10.728;2023-12-28T18:09:13;18.33;;;3.40;;
14048;SDS011;7099;53.922;10.728;2023-12-28T18:13:18;17.50;;;3.00;;
14048;SDS011;7099;53.922;10.728;2023-12-28T18:17:24;18.53;;;2.50;;
14048;SDS011;7099;53.922;10.728;2023-12-28T18:21:30;13.17;;;2.83;;
14048;SDS011;7099;53.922;10.728;2023-12-28T18:25:36;12.23;;;2.87;;
14048;SDS011;7099;53.922;10.728;2023-12-28T18:29:42;11.43;;;2.30;;
14048;SDS011;7099;53.922;10.728;2023-12-28T18:33:53;15.40;;;2.73;;
14048;SDS011;7099;53.922;10.728;2023-12-28T18:37:59;15.40;;;2.47;;
14048;SDS011;7099;53.922;10.728;2023-12-28T18:42:06;17.30;;;2.80;;
14048;SDS011;7099;53.922;10.728;2023-12-28T18:46:12;14.17;;;2.50;;
14048;SDS011;7099;53.922;10.728;2023-12-28T18:50:18;10.33;;;2.70;;
14048;SDS011;7099;53.922;10.728;2023-12-28T18:54:24;20.90;;;2.40;;
14048;SDS011;7099;53.922;10.728;2023-12-28T18:58:30;10.23;;;3.23;;
14048;SDS011;7099;53.922;10.728;2023-12-28T19:02:35;21.17;;;3.10;;
14048;SDS011;7099;53.922;10.728;2023-12-28T19:06:41;12.47;;;2.73;;
14048;SDS011;7099;53.922;10.728;2023-12-28T19:10:47;12.33;;;2.50;;
14048;SDS011;7099;53.922;10.728;2023-12-28T19:14:53;9.70;;;2.30;;
14048;SDS011;7099;53.922;10.728;2023-12-28T19:19:00;11.27;;;2.57;;
14048;SDS011;7099;53.922;10.728;2023-12-28T19:23:06;17.73;;;2.93;;
14048;SDS011;7099;53.922;10.728;2023-12-28T19:27:11;14.10;;;2.80;;
14048;SDS011;7099;53.922;10.728;2023-12-28T19:31:17;6.10;;;2.13;;
14048;SDS011;7099;53.922;10.728;2023-12-28T19:35:23;12.50;;;2.47;;
14048;SDS011;7099;53.922;10.728;2023-12-28T19:39:29;12.10;;;3.73;;
14048;SDS011;7099;53.922;10.728;2023-12-28T19:43:35;18.83;;;2.90;;
14048;SDS011;7099;53.922;10.728;2023-12-28T19:47:40;14.53;;;2.53;;
14048;SDS011;7099;53.922;10.728;2023-12-28T19:51:46;15.60;;;3.27;;
14048;SDS011;7099;53.922;10.728;2023-12-28T19:55:51;9.90;;;2.23;;
14048;SDS011;7099;53.922;10.728;2023-12-28T19:59:57;13.83;;;2.97;;
14048;SDS011;7099;53.922;10.728;2023-12-28T20:04:03;14.90;;;2.87;;
14048;SDS011;7099;53.922;10.728;2023-12-28T20:08:08;9.93;;;2.43;;
14048;SDS011;7099;53.922;10.728;2023-12-28T20:12:14;7.87;;;2.37;;
14048;SDS011;7099;53.922;10.728;2023-12-28T20:16:19;7.30;;;1.80;;
14048;SDS011;7099;53.922;10.728;2023-12-28T20:20:25;11.23;;;2.43;;
14048;SDS011;7099;53.922;10.728;2023-12-28T20:24:31;21.80;;;3.10;;
14048;SDS011;7099;53.922;10.728;2023-12-28T20:28:38;9.63;;;2.73;;
14048;SDS011;7099;53.922;10.728;2023-12-28T20:32:44;11.53;;;2.50;;
14048;SDS011;7099;53.922;10.728;2023-12-28T20:36:50;12.40;;;2.73;;
14048;SDS011;7099;53.922;10.728;2023-12-28T20:40:57;15.10;;;2.70;;
14048;SDS011;7099;53.922;10.728;2023-12-28T20:45:03;11.67;;;2.30;;
14048;SDS011;7099;53.922;10.728;2023-12-28T20:49:09;9.03;;;2.40;;
14048;SDS011;7099;53.922;10.728;2023-12-28T20:53:15;11.10;;;2.30;;
14048;SDS011;7099;53.922;10.728;2023-12-28T20:57:20;15.23;;;2.70;;
14048;SDS011;7099;53.922;10.728;2023-12-28T21:01:34;14.07;;;2.23;;
14048;SDS011;7099;53.922;10.728;2023-12-28T21:05:40;5.20;;;1.53;;
14048;SDS011;7099;53.922;10.728;2023-12-28T21:09:45;13.10;;;2.43;;
14048;SDS011;7099;53.922;10.728;2023-12-28T21:13:51;13.73;;;3.00;;
14048;SDS011;7099;53.922;10.728;2023-12-28T21:18:07;9.10;;;2.10;;
14048;SDS011;7099;53.922;10.728;2023-12-28T21:22:26;15.87;;;2.53;;
14048;SDS011;7099;53.922;10.728;2023-12-28T21:26:32;16.53;;;2.70;;
14048;SDS011;7099;53.922;10.728;2023-12-28T21:30:37;17.97;;;3.27;;
14048;SDS011;7099;53.922;10.728;2023-12-28T21:34:45;11.93;;;2.40;;
14048;SDS011;7099;53.922;10.728;2023-12-28T21:38:52;12.60;;;2.67;;
14048;SDS011;7099;53.922;10.728;2023-12-28T21:42:57;8.60;;;2.20;;
14048;SDS011;7099;53.922;10.728;2023-12-28T21:47:03;11.00;;;2.40;;
14048;SDS011;7099;53.922;10.728;2023-12-28T21:51:09;9.07;;;2.20;;
14048;SDS011;7099;53.922;10.728;2023-12-28T21:55:15;6.13;;;1.90;;
14048;SDS011;7099;53.922;10.728;2023-12-28T21:59:21;10.13;;;2.43;;
14048;SDS011;7099;53.922;10.728;2023-12-28T22:03:28;8.53;;;2.13;;
14048;SDS011;7099;53.922;10.728;2023-12-28T22:07:33;12.70;;;2.20;;
14048;SDS011;7099;53.922;10.728;2023-12-28T22:11:39;17.10;;;2.53;;
14048;SDS011;7099;53.922;10.728;2023-12-28T22:15:45;15.97;;;2.13;;
14048;SDS011;7099;53.922;10.728;2023-12-28T22:20:03;10.87;;;2.00;;
14048;SDS011;7099;53.922;10.728;2023-12-28T22:24:10;12.83;;;2.20;;
14048;SDS011;7099;53.922;10.728;2023-12-28T22:28:16;8.77;;;2.10;;
14048;SDS011;7099;53.922;10.728;2023-12-28T22:32:21;8.90;;;2.00;;
14048;SDS011;7099;53.922;10.728;2023-12-28T22:36:27;8.30;;;2.30;;
14048;SDS011;7099;53.922;10.728;2023-12-28T22:40:32;11.03;;;2.37;;
14048;SDS011;7099;53.922;10.728;2023-12-28T22:44:38;12.57;;;2.80;;
14048;SDS011;7099;53.922;10.728;2023-12-28T22:48:44;15.03;;;2.20;;
14048;SDS011;7099;53.922;10.728;2023-12-28T22:52:50;7.37;;;2.00;;
14048;SDS011;7099;53.922;10.728;2023-12-28T22:56:56;10.03;;;2.00;;
14048;SDS011;7099;53.922;10.728;2023-12-28T23:01:02;11.77;;;2.23;;
14048;SDS011;7099;53.922;10.728;2023-12-28T23:05:08;12.23;;;2.07;;
14048;SDS011;7099;53.922;10.728;2023-12-28T23:09:13;7.83;;;1.80;;
14048;SDS011;7099;53.922;10.728;2023-12-28T23:13:20;10.53;;;2.23;;
14048;SDS011;7099;53.922;10.728;2023-12-28T23:17:26;11.50;;;2.77;;
14048;SDS011;7099;53.922;10.728;2023-12-28T23:21:31;10.53;;;2.27;;
14048;SDS011;7099;53.922;10.728;2023-12-28T23:25:37;9.17;;;1.73;;
14048;SDS011;7099;53.922;10.728;2023-12-28T23:29:42;4.80;;;1.90;;
14048;SDS011;7099;53.922;10.728;2023-12-28T23:33:49;9.40;;;2.03;;
14048;SDS011;7099;53.922;10.728;2023-12-28T23:37:55;5.07;;;2.00;;
14048;SDS011;7099;53.922;10.728;2023-12-28T23:42:01;8.50;;;1.90;;
14048;SDS011;7099;53.922;10.728;2023-12-28T23:46:08;11.10;;;2.50;;
14048;SDS011;7099;53.922;10.728;2023-12-28T23:50:14;10.20;;;2.00;;
14048;SDS011;7099;53.922;10.728;2023-12-28T23:54:20;12.03;;;1.90;;
14048;SDS011;7099;53.922;10.728;2023-12-28T23:58:26;7.43;;;2.10;;
